Aviation Digital Data Service (ADDS)

Output produced by METARs form (1156 UTC 26 August 2016)
found at http://aviationweather.gov/adds/metars/
 
KJFK 261128Z 2612/2718 23009KT P6SM FEW070 SCT100 
     FM261400 25011KT P6SM FEW030 SCT250 
     FM262100 27011KT P6SM FEW050 
     FM270000 34008KT P6SM SKC 
     FM270600 01006KT P6SM SKC 
     FM271500 04007KT P6SM SKC